sensor_id;sensor_type;location;lat;lon;timestamp;P1;durP1;ratioP1;P2;durP2;ratioP2
1262;SDS011;62267;50.112;8.704;2023-04-24T00:00:23;2.20;;;2.10;;
1262;SDS011;62267;50.112;8.704;2023-04-24T00:02:52;2.20;;;2.10;;
1262;SDS011;62267;50.112;8.704;2023-04-24T00:05:24;2.87;;;2.20;;
1262;SDS011;62267;50.112;8.704;2023-04-24T00:07:51;2.73;;;2.50;;
1262;SDS011;62267;50.112;8.704;2023-04-24T00:10:19;2.17;;;2.07;;
1262;SDS011;62267;50.112;8.704;2023-04-24T00:12:48;2.77;;;2.57;;
1262;SDS011;62267;50.112;8.704;2023-04-24T00:15:16;2.60;;;2.40;;
1262;SDS011;62267;50.112;8.704;2023-04-24T00:17:43;3.60;;;2.70;;
1262;SDS011;62267;50.112;8.704;2023-04-24T00:20:11;2.90;;;2.70;;
1262;SDS011;62267;50.112;8.704;2023-04-24T00:22:40;2.83;;;2.60;;
1262;SDS011;62267;50.112;8.704;2023-04-24T00:25:07;3.73;;;2.90;;
1262;SDS011;62267;50.112;8.704;2023-04-24T00:27:34;2.63;;;2.43;;
1262;SDS011;62267;50.112;8.704;2023-04-24T00:30:06;3.07;;;2.83;;
1262;SDS011;62267;50.112;8.704;2023-04-24T00:32:34;2.77;;;2.57;;
1262;SDS011;62267;50.112;8.704;2023-04-24T00:35:06;2.47;;;2.33;;
1262;SDS011;62267;50.112;8.704;2023-04-24T00:37:35;3.43;;;2.83;;
1262;SDS011;62267;50.112;8.704;2023-04-24T00:40:03;2.70;;;2.50;;
1262;SDS011;62267;50.112;8.704;2023-04-24T00:42:30;3.00;;;2.80;;
1262;SDS011;62267;50.112;8.704;2023-04-24T00:44:58;3.73;;;2.43;;
1262;SDS011;62267;50.112;8.704;2023-04-24T00:47:26;2.97;;;2.67;;
1262;SDS011;62267;50.112;8.704;2023-04-24T00:49:54;3.40;;;2.60;;
1262;SDS011;62267;50.112;8.704;2023-04-24T00:52:22;2.70;;;2.50;;
1262;SDS011;62267;50.112;8.704;2023-04-24T00:54:51;2.67;;;2.47;;
1262;SDS011;62267;50.112;8.704;2023-04-24T00:57:18;2.80;;;2.60;;
1262;SDS011;62267;50.112;8.704;2023-04-24T00:59:46;2.40;;;2.27;;
1262;SDS011;62267;50.112;8.704;2023-04-24T01:02:14;3.03;;;2.20;;
1262;SDS011;62267;50.112;8.704;2023-04-24T01:04:43;2.63;;;2.43;;
1262;SDS011;62267;50.112;8.704;2023-04-24T01:07:11;2.80;;;2.43;;
1262;SDS011;62267;50.112;8.704;2023-04-24T01:09:42;2.40;;;2.20;;
1262;SDS011;62267;50.112;8.704;2023-04-24T01:12:10;2.30;;;2.17;;
1262;SDS011;62267;50.112;8.704;2023-04-24T01:14:37;2.70;;;2.40;;
1262;SDS011;62267;50.112;8.704;2023-04-24T01:17:05;2.87;;;2.57;;
1262;SDS011;62267;50.112;8.704;2023-04-24T01:19:36;2.77;;;2.53;;
1262;SDS011;62267;50.112;8.704;2023-04-24T01:22:08;2.50;;;2.10;;
1262;SDS011;62267;50.112;8.704;2023-04-24T01:24:38;2.23;;;2.10;;
1262;SDS011;62267;50.112;8.704;2023-04-24T01:27:07;3.10;;;2.10;;
1262;SDS011;62267;50.112;8.704;2023-04-24T01:29:35;2.30;;;2.10;;
1262;SDS011;62267;50.112;8.704;2023-04-24T01:32:03;2.57;;;2.37;;
1262;SDS011;62267;50.112;8.704;2023-04-24T01:34:31;2.40;;;2.10;;
1262;SDS011;62267;50.112;8.704;2023-04-24T01:36:59;2.70;;;2.37;;
1262;SDS011;62267;50.112;8.704;2023-04-24T01:39:29;2.30;;;2.20;;
1262;SDS011;62267;50.112;8.704;2023-04-24T01:42:00;2.83;;;2.50;;
1262;SDS011;62267;50.112;8.704;2023-04-24T01:44:29;2.10;;;1.90;;
1262;SDS011;62267;50.112;8.704;2023-04-24T01:46:57;2.50;;;2.30;;
1262;SDS011;62267;50.112;8.704;2023-04-24T01:49:25;2.97;;;2.23;;
1262;SDS011;62267;50.112;8.704;2023-04-24T01:51:52;2.50;;;2.40;;
1262;SDS011;62267;50.112;8.704;2023-04-24T01:54:20;3.27;;;2.07;;
1262;SDS011;62267;50.112;8.704;2023-04-24T01:56:47;2.47;;;2.23;;
1262;SDS011;62267;50.112;8.704;2023-04-24T01:59:15;2.90;;;2.33;;
1262;SDS011;62267;50.112;8.704;2023-04-24T02:01:44;3.33;;;2.30;;
1262;SDS011;62267;50.112;8.704;2023-04-24T02:04:13;4.97;;;2.40;;
1262;SDS011;62267;50.112;8.704;2023-04-24T02:06:41;3.10;;;2.77;;
1262;SDS011;62267;50.112;8.704;2023-04-24T02:09:09;4.27;;;2.70;;
1262;SDS011;62267;50.112;8.704;2023-04-24T02:11:37;2.47;;;2.27;;
1262;SDS011;62267;50.112;8.704;2023-04-24T02:14:04;2.83;;;2.33;;
1262;SDS011;62267;50.112;8.704;2023-04-24T02:16:31;3.00;;;2.00;;
1262;SDS011;62267;50.112;8.704;2023-04-24T02:18:59;4.37;;;2.70;;
1262;SDS011;62267;50.112;8.704;2023-04-24T02:21:27;2.20;;;2.00;;
1262;SDS011;62267;50.112;8.704;2023-04-24T02:23:54;2.50;;;2.20;;
1262;SDS011;62267;50.112;8.704;2023-04-24T02:26:22;2.23;;;2.10;;
1262;SDS011;62267;50.112;8.704;2023-04-24T02:28:50;2.20;;;2.10;;
1262;SDS011;62267;50.112;8.704;2023-04-24T02:31:19;3.97;;;2.20;;
1262;SDS011;62267;50.112;8.704;2023-04-24T02:33:47;2.90;;;2.37;;
1262;SDS011;62267;50.112;8.704;2023-04-24T02:36:15;2.47;;;2.27;;
1262;SDS011;62267;50.112;8.704;2023-04-24T02:38:42;3.10;;;2.23;;
1262;SDS011;62267;50.112;8.704;2023-04-24T02:41:12;2.50;;;2.30;;
1262;SDS011;62267;50.112;8.704;2023-04-24T02:43:42;3.70;;;2.53;;
1262;SDS011;62267;50.112;8.704;2023-04-24T02:46:10;2.43;;;2.30;;
1262;SDS011;62267;50.112;8.704;2023-04-24T02:48:37;2.40;;;2.20;;
1262;SDS011;62267;50.112;8.704;2023-04-24T02:51:05;2.40;;;2.20;;
1262;SDS011;62267;50.112;8.704;2023-04-24T02:53:33;2.40;;;2.20;;
1262;SDS011;62267;50.112;8.704;2023-04-24T02:56:02;4.93;;;2.60;;
1262;SDS011;62267;50.112;8.704;2023-04-24T02:58:30;2.90;;;2.20;;
1262;SDS011;62267;50.112;8.704;2023-04-24T03:00:57;2.50;;;2.30;;
1262;SDS011;62267;50.112;8.704;2023-04-24T03:03:26;2.77;;;2.57;;
1262;SDS011;62267;50.112;8.704;2023-04-24T03:05:54;2.53;;;2.40;;
1262;SDS011;62267;50.112;8.704;2023-04-24T03:08:22;2.23;;;2.10;;
1262;SDS011;62267;50.112;8.704;2023-04-24T03:10:49;3.27;;;3.00;;
1262;SDS011;62267;50.112;8.704;2023-04-24T03:13:17;2.43;;;2.23;;
1262;SDS011;62267;50.112;8.704;2023-04-24T03:15:45;2.97;;;2.10;;
1262;SDS011;62267;50.112;8.704;2023-04-24T03:18:13;2.17;;;2.07;;
1262;SDS011;62267;50.112;8.704;2023-04-24T03:20:42;2.30;;;2.20;;
1262;SDS011;62267;50.112;8.704;2023-04-24T03:23:09;2.43;;;2.23;;
1262;SDS011;62267;50.112;8.704;2023-04-24T03:25:39;4.20;;;2.47;;
1262;SDS011;62267;50.112;8.704;2023-04-24T03:28:07;3.00;;;2.70;;
1262;SDS011;62267;50.112;8.704;2023-04-24T03:30:40;2.43;;;2.23;;
1262;SDS011;62267;50.112;8.704;2023-04-24T03:33:09;2.73;;;2.53;;
1262;SDS011;62267;50.112;8.704;2023-04-24T03:35:42;3.03;;;2.50;;
1262;SDS011;62267;50.112;8.704;2023-04-24T03:38:11;2.53;;;2.40;;
1262;SDS011;62267;50.112;8.704;2023-04-24T03:40:41;2.40;;;2.20;;
1262;SDS011;62267;50.112;8.704;2023-04-24T03:43:25;2.53;;;2.43;;
1262;SDS011;62267;50.112;8.704;2023-04-24T03:45:55;2.77;;;2.50;;
1262;SDS011;62267;50.112;8.704;2023-04-24T03:48:23;2.50;;;2.20;;
1262;SDS011;62267;50.112;8.704;2023-04-24T03:50:51;2.20;;;2.10;;
1262;SDS011;62267;50.112;8.704;2023-04-24T03:53:19;2.60;;;2.40;;
1262;SDS011;62267;50.112;8.704;2023-04-24T03:55:47;2.70;;;2.50;;
1262;SDS011;62267;50.112;8.704;2023-04-24T03:58:14;2.83;;;2.60;;
1262;SDS011;62267;50.112;8.704;2023-04-24T04:00:42;2.70;;;2.40;;
1262;SDS011;62267;50.112;8.704;2023-04-24T04:03:30;4.63;;;2.13;;
1262;SDS011;62267;50.112;8.704;2023-04-24T04:05:58;3.50;;;2.40;;
1262;SDS011;62267;50.112;8.704;2023-04-24T04:08:28;6.50;;;2.33;;
1262;SDS011;62267;50.112;8.704;2023-04-24T04:10:55;2.50;;;2.30;;
1262;SDS011;62267;50.112;8.704;2023-04-24T04:13:22;4.37;;;2.30;;
1262;SDS011;62267;50.112;8.704;2023-04-24T04:15:49;3.23;;;2.80;;
1262;SDS011;62267;50.112;8.704;2023-04-24T04:18:18;3.20;;;2.60;;
1262;SDS011;62267;50.112;8.704;2023-04-24T04:20:46;2.90;;;2.40;;
1262;SDS011;62267;50.112;8.704;2023-04-24T04:23:14;2.53;;;2.33;;
1262;SDS011;62267;50.112;8.704;2023-04-24T04:26:00;4.33;;;2.90;;
1262;SDS011;62267;50.112;8.704;2023-04-24T04:28:42;4.90;;;3.37;;
1262;SDS011;62267;50.112;8.704;2023-04-24T04:31:11;4.03;;;3.10;;
1262;SDS011;62267;50.112;8.704;2023-04-24T04:33:39;3.00;;;2.43;;
1262;SDS011;62267;50.112;8.704;2023-04-24T04:36:08;2.67;;;2.50;;
1262;SDS011;62267;50.112;8.704;2023-04-24T04:38:40;3.40;;;3.10;;
1262;SDS011;62267;50.112;8.704;2023-04-24T04:41:28;2.60;;;2.40;;
1262;SDS011;62267;50.112;8.704;2023-04-24T04:43:56;2.77;;;2.67;;
1262;SDS011;62267;50.112;8.704;2023-04-24T04:46:25;4.20;;;2.80;;
1262;SDS011;62267;50.112;8.704;2023-04-24T04:48:59;3.10;;;2.80;;
1262;SDS011;62267;50.112;8.704;2023-04-24T04:51:28;2.93;;;2.73;;
1262;SDS011;62267;50.112;8.704;2023-04-24T04:53:55;3.10;;;2.90;;
1262;SDS011;62267;50.112;8.704;2023-04-24T04:56:23;3.13;;;2.70;;
1262;SDS011;62267;50.112;8.704;2023-04-24T04:58:51;3.33;;;3.10;;
1262;SDS011;62267;50.112;8.704;2023-04-24T05:01:19;3.00;;;2.80;;
1262;SDS011;62267;50.112;8.704;2023-04-24T05:03:48;3.37;;;3.07;;
1262;SDS011;62267;50.112;8.704;2023-04-24T05:06:16;3.23;;;3.03;;
1262;SDS011;62267;50.112;8.704;2023-04-24T05:08:45;4.00;;;3.20;;
1262;SDS011;62267;50.112;8.704;2023-04-24T05:11:29;3.77;;;3.20;;
1262;SDS011;62267;50.112;8.704;2023-04-24T05:13:58;4.40;;;3.40;;
1262;SDS011;62267;50.112;8.704;2023-04-24T05:16:34;2.77;;;2.63;;
1262;SDS011;62267;50.112;8.704;2023-04-24T05:19:04;3.00;;;2.80;;
1262;SDS011;62267;50.112;8.704;2023-04-24T05:21:38;3.20;;;2.90;;
1262;SDS011;62267;50.112;8.704;2023-04-24T05:24:06;3.17;;;2.97;;
1262;SDS011;62267;50.112;8.704;2023-04-24T05:26:59;3.90;;;3.60;;
1262;SDS011;62267;50.112;8.704;2023-04-24T05:29:33;3.73;;;3.53;;
1262;SDS011;62267;50.112;8.704;2023-04-24T05:32:02;6.93;;;3.70;;
1262;SDS011;62267;50.112;8.704;2023-04-24T05:34:30;4.20;;;3.90;;
1262;SDS011;62267;50.112;8.704;2023-04-24T05:36:57;5.40;;;3.80;;
1262;SDS011;62267;50.112;8.704;2023-04-24T05:39:25;3.73;;;3.40;;
1262;SDS011;62267;50.112;8.704;2023-04-24T05:41:53;4.10;;;3.80;;
1262;SDS011;62267;50.112;8.704;2023-04-24T05:44:27;3.80;;;3.50;;
1262;SDS011;62267;50.112;8.704;2023-04-24T05:46:54;4.87;;;4.27;;
1262;SDS011;62267;50.112;8.704;2023-04-24T05:49:22;3.70;;;3.40;;
1262;SDS011;62267;50.112;8.704;2023-04-24T05:51:50;3.87;;;3.63;;
1262;SDS011;62267;50.112;8.704;2023-04-24T05:54:17;6.47;;;4.73;;
1262;SDS011;62267;50.112;8.704;2023-04-24T05:56:44;5.43;;;3.63;;
1262;SDS011;62267;50.112;8.704;2023-04-24T05:59:18;5.17;;;4.77;;
1262;SDS011;62267;50.112;8.704;2023-04-24T06:01:48;4.37;;;3.97;;
1262;SDS011;62267;50.112;8.704;2023-04-24T06:04:19;6.03;;;4.10;;
1262;SDS011;62267;50.112;8.704;2023-04-24T06:06:47;4.60;;;3.77;;
1262;SDS011;62267;50.112;8.704;2023-04-24T06:09:17;4.30;;;4.00;;
1262;SDS011;62267;50.112;8.704;2023-04-24T06:11:44;5.17;;;4.00;;
1262;SDS011;62267;50.112;8.704;2023-04-24T06:14:13;4.30;;;3.90;;
1262;SDS011;62267;50.112;8.704;2023-04-24T06:17:02;4.50;;;4.20;;
1262;SDS011;62267;50.112;8.704;2023-04-24T06:19:35;8.63;;;4.20;;
1262;SDS011;62267;50.112;8.704;2023-04-24T06:22:02;3.73;;;3.43;;
1262;SDS011;62267;50.112;8.704;2023-04-24T06:24:30;4.13;;;3.83;;
1262;SDS011;62267;50.112;8.704;2023-04-24T06:26:57;7.40;;;6.60;;
1262;SDS011;62267;50.112;8.704;2023-04-24T06:29:26;4.97;;;4.47;;
1262;SDS011;62267;50.112;8.704;2023-04-24T06:31:53;6.83;;;4.40;;
1262;SDS011;62267;50.112;8.704;2023-04-24T06:34:20;4.63;;;4.23;;
1262;SDS011;62267;50.112;8.704;2023-04-24T06:36:47;5.70;;;5.20;;
1262;SDS011;62267;50.112;8.704;2023-04-24T06:39:15;7.97;;;5.53;;
1262;SDS011;62267;50.112;8.704;2023-04-24T06:41:42;6.23;;;5.33;;
1262;SDS011;62267;50.112;8.704;2023-04-24T06:44:17;5.93;;;5.27;;
1262;SDS011;62267;50.112;8.704;2023-04-24T06:46:46;6.30;;;5.50;;
1262;SDS011;62267;50.112;8.704;2023-04-24T06:49:16;5.20;;;4.80;;
1262;SDS011;62267;50.112;8.704;2023-04-24T06:51:44;6.13;;;4.80;;
1262;SDS011;62267;50.112;8.704;2023-04-24T06:54:11;5.40;;;4.43;;
1262;SDS011;62267;50.112;8.704;2023-04-24T06:56:39;5.20;;;4.70;;
1262;SDS011;62267;50.112;8.704;2023-04-24T06:59:07;4.83;;;4.40;;
1262;SDS011;62267;50.112;8.704;2023-04-24T07:01:34;4.80;;;4.40;;
1262;SDS011;62267;50.112;8.704;2023-04-24T07:04:01;4.97;;;4.50;;
1262;SDS011;62267;50.112;8.704;2023-04-24T07:06:29;7.03;;;4.20;;
1262;SDS011;62267;50.112;8.704;2023-04-24T07:08:57;5.47;;;4.33;;
1262;SDS011;62267;50.112;8.704;2023-04-24T07:11:28;4.93;;;4.53;;
1262;SDS011;62267;50.112;8.704;2023-04-24T07:13:55;5.17;;;4.70;;
1262;SDS011;62267;50.112;8.704;2023-04-24T07:16:23;5.30;;;4.80;;
1262;SDS011;62267;50.112;8.704;2023-04-24T07:18:51;5.13;;;4.73;;
1262;SDS011;62267;50.112;8.704;2023-04-24T07:21:18;5.67;;;5.17;;
1262;SDS011;62267;50.112;8.704;2023-04-24T07:23:45;5.20;;;4.80;;
1262;SDS011;62267;50.112;8.704;2023-04-24T07:26:12;5.13;;;4.40;;
1262;SDS011;62267;50.112;8.704;2023-04-24T07:28:41;5.97;;;5.40;;
1262;SDS011;62267;50.112;8.704;2023-04-24T07:31:08;5.40;;;5.00;;
1262;SDS011;62267;50.112;8.704;2023-04-24T07:33:36;5.23;;;4.80;;
1262;SDS011;62267;50.112;8.704;2023-04-24T07:36:03;5.50;;;5.00;;
1262;SDS011;62267;50.112;8.704;2023-04-24T07:38:31;5.20;;;4.70;;
1262;SDS011;62267;50.112;8.704;2023-04-24T07:41:01;5.80;;;5.27;;
1262;SDS011;62267;50.112;8.704;2023-04-24T07:43:28;6.90;;;4.60;;
1262;SDS011;62267;50.112;8.704;2023-04-24T07:45:55;8.87;;;4.67;;
1262;SDS011;62267;50.112;8.704;2023-04-24T07:48:23;4.60;;;4.20;;
1262;SDS011;62267;50.112;8.704;2023-04-24T07:50:52;4.87;;;4.47;;
1262;SDS011;62267;50.112;8.704;2023-04-24T07:53:21;4.67;;;4.27;;
1262;SDS011;62267;50.112;8.704;2023-04-24T07:55:49;4.97;;;4.03;;
1262;SDS011;62267;50.112;8.704;2023-04-24T07:58:16;4.50;;;4.20;;
1262;SDS011;62267;50.112;8.704;2023-04-24T08:00:44;5.10;;;4.60;;
1262;SDS011;62267;50.112;8.704;2023-04-24T08:03:11;4.90;;;4.40;;
1262;SDS011;62267;50.112;8.704;2023-04-24T08:05:39;5.27;;;4.70;;
1262;SDS011;62267;50.112;8.704;2023-04-24T08:08:09;5.27;;;4.77;;
1262;SDS011;62267;50.112;8.704;2023-04-24T08:10:36;5.53;;;4.80;;
1262;SDS011;62267;50.112;8.704;2023-04-24T08:13:04;5.00;;;4.60;;
1262;SDS011;62267;50.112;8.704;2023-04-24T08:15:31;5.57;;;5.00;;
1262;SDS011;62267;50.112;8.704;2023-04-24T08:17:58;5.20;;;4.80;;
1262;SDS011;62267;50.112;8.704;2023-04-24T08:20:26;5.13;;;4.63;;
1262;SDS011;62267;50.112;8.704;2023-04-24T08:22:54;5.07;;;4.67;;
1262;SDS011;62267;50.112;8.704;2023-04-24T08:25:22;4.70;;;4.40;;
1262;SDS011;62267;50.112;8.704;2023-04-24T08:27:51;6.50;;;5.10;;
1262;SDS011;62267;50.112;8.704;2023-04-24T08:30:18;5.33;;;4.83;;
1262;SDS011;62267;50.112;8.704;2023-04-24T08:32:46;5.40;;;5.00;;
1262;SDS011;62267;50.112;8.704;2023-04-24T08:35:14;4.33;;;4.00;;
1262;SDS011;62267;50.112;8.704;2023-04-24T08:37:42;5.87;;;4.50;;
1262;SDS011;62267;50.112;8.704;2023-04-24T08:40:15;6.40;;;5.63;;
1262;SDS011;62267;50.112;8.704;2023-04-24T08:42:44;5.10;;;4.60;;
1262;SDS011;62267;50.112;8.704;2023-04-24T08:45:12;5.60;;;5.10;;
1262;SDS011;62267;50.112;8.704;2023-04-24T08:47:40;5.47;;;4.53;;
1262;SDS011;62267;50.112;8.704;2023-04-24T08:50:08;5.13;;;4.63;;
1262;SDS011;62267;50.112;8.704;2023-04-24T08:52:36;4.90;;;4.50;;
1262;SDS011;62267;50.112;8.704;2023-04-24T08:55:04;5.43;;;4.30;;
1262;SDS011;62267;50.112;8.704;2023-04-24T08:57:31;5.23;;;4.70;;
1262;SDS011;62267;50.112;8.704;2023-04-24T09:00:00;5.10;;;4.60;;
1262;SDS011;62267;50.112;8.704;2023-04-24T09:02:27;5.43;;;5.00;;
1262;SDS011;62267;50.112;8.704;2023-04-24T09:04:55;4.80;;;4.50;;
1262;SDS011;62267;50.112;8.704;2023-04-24T09:07:24;5.40;;;4.50;;
1262;SDS011;62267;50.112;8.704;2023-04-24T09:09:52;4.27;;;3.97;;
1262;SDS011;62267;50.112;8.704;2023-04-24T09:12:19;4.93;;;4.40;;
1262;SDS011;62267;50.112;8.704;2023-04-24T09:14:47;4.90;;;4.50;;
1262;SDS011;62267;50.112;8.704;2023-04-24T09:17:15;4.40;;;4.00;;
1262;SDS011;62267;50.112;8.704;2023-04-24T09:19:42;4.50;;;4.10;;
1262;SDS011;62267;50.112;8.704;2023-04-24T09:22:09;8.87;;;4.67;;
1262;SDS011;62267;50.112;8.704;2023-04-24T09:24:37;4.33;;;3.93;;
1262;SDS011;62267;50.112;8.704;2023-04-24T09:27:05;4.60;;;4.30;;
1262;SDS011;62267;50.112;8.704;2023-04-24T09:29:36;7.77;;;4.60;;
1262;SDS011;62267;50.112;8.704;2023-04-24T09:32:17;4.70;;;4.30;;
1262;SDS011;62267;50.112;8.704;2023-04-24T09:34:48;4.97;;;4.57;;
1262;SDS011;62267;50.112;8.704;2023-04-24T09:37:29;5.30;;;4.53;;
1262;SDS011;62267;50.112;8.704;2023-04-24T09:40:09;5.13;;;4.63;;
1262;SDS011;62267;50.112;8.704;2023-04-24T09:42:38;4.97;;;4.57;;
1262;SDS011;62267;50.112;8.704;2023-04-24T09:45:08;3.90;;;3.60;;
1262;SDS011;62267;50.112;8.704;2023-04-24T09:47:41;4.53;;;4.13;;
1262;SDS011;62267;50.112;8.704;2023-04-24T09:50:09;4.37;;;3.90;;
1262;SDS011;62267;50.112;8.704;2023-04-24T09:52:47;5.57;;;4.20;;
1262;SDS011;62267;50.112;8.704;2023-04-24T09:55:16;4.10;;;3.80;;
1262;SDS011;62267;50.112;8.704;2023-04-24T10:00:30;4.97;;;4.50;;
1262;SDS011;62267;50.112;8.704;2023-04-24T10:03:01;4.13;;;3.83;;
1262;SDS011;62267;50.112;8.704;2023-04-24T10:05:30;4.40;;;4.10;;
1262;SDS011;62267;50.112;8.704;2023-04-24T10:08:02;4.50;;;4.10;;
1262;SDS011;62267;50.112;8.704;2023-04-24T10:10:31;4.63;;;4.23;;
1262;SDS011;62267;50.112;8.704;2023-04-24T10:12:58;4.10;;;3.60;;
1262;SDS011;62267;50.112;8.704;2023-04-24T10:15:26;4.80;;;4.23;;
1262;SDS011;62267;50.112;8.704;2023-04-24T10:17:54;8.20;;;4.37;;
1262;SDS011;62267;50.112;8.704;2023-04-24T10:20:22;3.90;;;3.50;;
1262;SDS011;62267;50.112;8.704;2023-04-24T10:22:51;4.17;;;3.87;;
1262;SDS011;62267;50.112;8.704;2023-04-24T10:25:28;3.97;;;3.67;;
1262;SDS011;62267;50.112;8.704;2023-04-24T10:27:57;5.50;;;3.00;;
1262;SDS011;62267;50.112;8.704;2023-04-24T10:30:26;4.00;;;3.70;;
1262;SDS011;62267;50.112;8.704;2023-04-24T10:32:56;3.77;;;3.47;;
1262;SDS011;62267;50.112;8.704;2023-04-24T10:35:23;4.13;;;3.73;;
1262;SDS011;62267;50.112;8.704;2023-04-24T10:37:57;3.83;;;3.53;;
1262;SDS011;62267;50.112;8.704;2023-04-24T10:40:25;3.77;;;3.47;;
1262;SDS011;62267;50.112;8.704;2023-04-24T10:42:53;4.80;;;4.00;;
1262;SDS011;62267;50.112;8.704;2023-04-24T10:45:25;4.33;;;3.70;;
1262;SDS011;62267;50.112;8.704;2023-04-24T10:50:44;4.83;;;4.43;;
1262;SDS011;62267;50.112;8.704;2023-04-24T10:53:13;5.00;;;4.10;;
1262;SDS011;62267;50.112;8.704;2023-04-24T10:55:42;4.30;;;3.90;;
1262;SDS011;62267;50.112;8.704;2023-04-24T10:58:10;4.17;;;3.80;;
1262;SDS011;62267;50.112;8.704;2023-04-24T11:00:40;6.10;;;5.10;;
1262;SDS011;62267;50.112;8.704;2023-04-24T11:03:24;5.03;;;4.53;;
1262;SDS011;62267;50.112;8.704;2023-04-24T11:05:55;4.80;;;4.40;;
1262;SDS011;62267;50.112;8.704;2023-04-24T11:08:24;4.13;;;3.80;;
1262;SDS011;62267;50.112;8.704;2023-04-24T11:16:39;6.03;;;3.30;;
1262;SDS011;62267;50.112;8.704;2023-04-24T11:19:18;3.13;;;2.93;;
1262;SDS011;62267;50.112;8.704;2023-04-24T11:21:47;2.97;;;2.77;;
1262;SDS011;62267;50.112;8.704;2023-04-24T11:24:27;2.90;;;2.70;;
1262;SDS011;62267;50.112;8.704;2023-04-24T11:27:00;3.10;;;2.90;;
1262;SDS011;62267;50.112;8.704;2023-04-24T11:34:47;4.00;;;3.70;;
1262;SDS011;62267;50.112;8.704;2023-04-24T11:37:17;3.23;;;3.03;;
1262;SDS011;62267;50.112;8.704;2023-04-24T11:39:44;3.87;;;3.50;;
1262;SDS011;62267;50.112;8.704;2023-04-24T11:42:16;4.37;;;3.97;;
1262;SDS011;62267;50.112;8.704;2023-04-24T11:44:43;3.73;;;3.40;;
1262;SDS011;62267;50.112;8.704;2023-04-24T11:47:11;4.07;;;3.73;;
1262;SDS011;62267;50.112;8.704;2023-04-24T11:49:38;2.87;;;2.67;;
1262;SDS011;62267;50.112;8.704;2023-04-24T11:52:06;4.87;;;3.53;;
1262;SDS011;62267;50.112;8.704;2023-04-24T11:54:33;2.70;;;2.50;;
1262;SDS011;62267;50.112;8.704;2023-04-24T11:57:03;3.10;;;2.90;;
1262;SDS011;62267;50.112;8.704;2023-04-24T11:59:35;3.70;;;3.40;;
1262;SDS011;62267;50.112;8.704;2023-04-24T12:02:03;3.17;;;2.93;;
1262;SDS011;62267;50.112;8.704;2023-04-24T12:04:38;3.10;;;2.90;;
1262;SDS011;62267;50.112;8.704;2023-04-24T12:07:05;3.47;;;3.17;;
1262;SDS011;62267;50.112;8.704;2023-04-24T12:09:44;3.60;;;3.30;;
1262;SDS011;62267;50.112;8.704;2023-04-24T12:12:18;3.33;;;3.03;;
1262;SDS011;62267;50.112;8.704;2023-04-24T12:14:49;3.63;;;3.20;;
1262;SDS011;62267;50.112;8.704;2023-04-24T12:17:23;3.03;;;2.83;;
1262;SDS011;62267;50.112;8.704;2023-04-24T12:19:57;4.20;;;3.80;;
1262;SDS011;62267;50.112;8.704;2023-04-24T12:22:24;2.80;;;2.40;;
1262;SDS011;62267;50.112;8.704;2023-04-24T12:27:25;2.20;;;2.10;;
1262;SDS011;62267;50.112;8.704;2023-04-24T12:29:55;2.40;;;2.30;;
1262;SDS011;62267;50.112;8.704;2023-04-24T12:32:23;2.37;;;2.27;;
1262;SDS011;62267;50.112;8.704;2023-04-24T12:34:54;2.90;;;2.70;;
1262;SDS011;62267;50.112;8.704;2023-04-24T12:37:26;3.80;;;3.20;;
1262;SDS011;62267;50.112;8.704;2023-04-24T12:40:00;3.30;;;3.00;;
1262;SDS011;62267;50.112;8.704;2023-04-24T12:42:27;3.30;;;3.10;;
1262;SDS011;62267;50.112;8.704;2023-04-24T12:45:04;3.93;;;3.23;;
1262;SDS011;62267;50.112;8.704;2023-04-24T12:47:32;3.50;;;3.20;;
1262;SDS011;62267;50.112;8.704;2023-04-24T12:50:00;3.63;;;3.10;;
1262;SDS011;62267;50.112;8.704;2023-04-24T12:52:28;3.80;;;3.50;;
1262;SDS011;62267;50.112;8.704;2023-04-24T12:54:59;5.30;;;3.90;;
1262;SDS011;62267;50.112;8.704;2023-04-24T12:57:29;4.97;;;4.00;;
1262;SDS011;62267;50.112;8.704;2023-04-24T12:59:58;7.53;;;4.27;;
1262;SDS011;62267;50.112;8.704;2023-04-24T13:02:26;5.57;;;5.07;;
1262;SDS011;62267;50.112;8.704;2023-04-24T13:04:55;5.53;;;4.67;;
1262;SDS011;62267;50.112;8.704;2023-04-24T13:07:22;4.87;;;4.47;;
1262;SDS011;62267;50.112;8.704;2023-04-24T13:09:50;6.07;;;5.20;;
1262;SDS011;62267;50.112;8.704;2023-04-24T13:12:18;5.97;;;5.37;;
1262;SDS011;62267;50.112;8.704;2023-04-24T13:14:46;5.90;;;4.83;;
1262;SDS011;62267;50.112;8.704;2023-04-24T13:17:14;7.03;;;6.33;;
1262;SDS011;62267;50.112;8.704;2023-04-24T13:19:42;6.00;;;5.40;;
1262;SDS011;62267;50.112;8.704;2023-04-24T13:22:10;5.67;;;5.17;;
1262;SDS011;62267;50.112;8.704;2023-04-24T13:24:38;6.47;;;5.87;;
1262;SDS011;62267;50.112;8.704;2023-04-24T13:27:07;10.10;;;5.50;;
1262;SDS011;62267;50.112;8.704;2023-04-24T13:29:36;5.20;;;4.70;;
1262;SDS011;62267;50.112;8.704;2023-04-24T13:32:15;7.53;;;6.17;;
1262;SDS011;62267;50.112;8.704;2023-04-24T13:34:43;4.90;;;4.40;;
1262;SDS011;62267;50.112;8.704;2023-04-24T13:37:12;4.70;;;4.30;;
1262;SDS011;62267;50.112;8.704;2023-04-24T13:39:40;5.13;;;4.73;;
1262;SDS011;62267;50.112;8.704;2023-04-24T13:42:08;6.23;;;4.67;;
1262;SDS011;62267;50.112;8.704;2023-04-24T13:44:35;7.03;;;5.60;;
1262;SDS011;62267;50.112;8.704;2023-04-24T13:47:03;5.20;;;4.70;;
1262;SDS011;62267;50.112;8.704;2023-04-24T13:49:30;6.00;;;4.50;;
1262;SDS011;62267;50.112;8.704;2023-04-24T13:51:57;4.90;;;4.43;;
1262;SDS011;62267;50.112;8.704;2023-04-24T13:54:26;4.83;;;4.30;;
1262;SDS011;62267;50.112;8.704;2023-04-24T13:56:55;5.40;;;4.87;;
1262;SDS011;62267;50.112;8.704;2023-04-24T13:59:23;5.10;;;4.67;;
1262;SDS011;62267;50.112;8.704;2023-04-24T14:01:50;7.33;;;5.87;;
1262;SDS011;62267;50.112;8.704;2023-04-24T14:04:18;5.00;;;4.60;;
1262;SDS011;62267;50.112;8.704;2023-04-24T14:06:45;5.77;;;5.17;;
1262;SDS011;62267;50.112;8.704;2023-04-24T14:09:12;6.53;;;5.10;;
1262;SDS011;62267;50.112;8.704;2023-04-24T14:11:40;6.80;;;5.50;;
1262;SDS011;62267;50.112;8.704;2023-04-24T14:14:07;5.13;;;4.63;;
1262;SDS011;62267;50.112;8.704;2023-04-24T14:16:34;9.30;;;5.33;;
1262;SDS011;62267;50.112;8.704;2023-04-24T14:19:02;7.67;;;4.63;;
1262;SDS011;62267;50.112;8.704;2023-04-24T14:21:31;6.70;;;5.03;;
1262;SDS011;62267;50.112;8.704;2023-04-24T14:23:59;6.00;;;5.10;;
1262;SDS011;62267;50.112;8.704;2023-04-24T14:26:26;4.97;;;4.53;;
1262;SDS011;62267;50.112;8.704;2023-04-24T14:28:53;6.23;;;5.63;;
1262;SDS011;62267;50.112;8.704;2023-04-24T14:31:37;5.43;;;4.93;;
1262;SDS011;62267;50.112;8.704;2023-04-24T14:34:06;5.07;;;4.67;;
1262;SDS011;62267;50.112;8.704;2023-04-24T14:36:33;4.80;;;4.40;;
1262;SDS011;62267;50.112;8.704;2023-04-24T14:39:01;9.03;;;5.40;;
1262;SDS011;62267;50.112;8.704;2023-04-24T14:41:32;5.60;;;5.10;;
1262;SDS011;62267;50.112;8.704;2023-04-24T14:44:05;7.17;;;4.83;;
1262;SDS011;62267;50.112;8.704;2023-04-24T14:46:32;7.23;;;5.10;;
1262;SDS011;62267;50.112;8.704;2023-04-24T14:49:00;5.93;;;5.33;;
1262;SDS011;62267;50.112;8.704;2023-04-24T14:51:27;6.03;;;5.53;;
1262;SDS011;62267;50.112;8.704;2023-04-24T14:53:55;5.30;;;4.80;;
1262;SDS011;62267;50.112;8.704;2023-04-24T14:56:23;7.47;;;6.00;;
1262;SDS011;62267;50.112;8.704;2023-04-24T14:58:50;7.00;;;5.30;;
1262;SDS011;62267;50.112;8.704;2023-04-24T15:01:17;6.57;;;5.87;;
1262;SDS011;62267;50.112;8.704;2023-04-24T15:03:45;6.93;;;6.27;;
1262;SDS011;62267;50.112;8.704;2023-04-24T15:06:14;7.10;;;5.90;;
1262;SDS011;62267;50.112;8.704;2023-04-24T15:08:41;9.33;;;5.53;;
1262;SDS011;62267;50.112;8.704;2023-04-24T15:11:09;10.40;;;5.87;;
1262;SDS011;62267;50.112;8.704;2023-04-24T15:13:38;6.60;;;5.87;;
1262;SDS011;62267;50.112;8.704;2023-04-24T15:16:07;6.50;;;5.90;;
1262;SDS011;62267;50.112;8.704;2023-04-24T15:18:35;5.47;;;4.97;;
1262;SDS011;62267;50.112;8.704;2023-04-24T15:21:02;8.00;;;5.53;;
1262;SDS011;62267;50.112;8.704;2023-04-24T15:23:32;5.70;;;5.10;;
1262;SDS011;62267;50.112;8.704;2023-04-24T15:26:00;5.80;;;5.30;;
1262;SDS011;62267;50.112;8.704;2023-04-24T15:28:28;5.60;;;5.10;;
1262;SDS011;62267;50.112;8.704;2023-04-24T15:30:55;6.50;;;5.13;;